Time;durP1;ratioP1;P1;durP2;ratioP2;P2;SDS_P1;SDS_P2;PMS_P1;PMS_P2;Temp;Humidity;BMP_temperature;BMP_pressure;BME280_temperature;BME280_humidity;BME280_pressure;Samples;Min_cycle;Max_cycle;Signal;HPM_P1;HPM_P2
2022/11/18 04:49:40;;;;;;;;;;;;;;;13.30;62.96;95688.88;4234239;27;10401;-67
2022/11/18 04:51:44;;;;;;;;;;;;;;;13.54;62.79;95688.78;4219965;28;5928;-68
2022/11/18 04:53:47;;;;;;;;;;;;;;;13.76;62.27;95695.00;4229242;28;5683;-67
2022/11/18 04:55:50;;;;;;;;;;;;;;;13.96;61.96;95694.56;4229040;28;5787;-68
2022/11/18 04:57:53;;;;;;;;;;;;;;;14.06;61.61;95705.34;4229540;28;5803;-67
2022/11/18 04:59:55;;;;;;;;;;;;;;;14.11;61.38;95701.97;4227348;28;6126;-67
2022/11/18 05:01:59;;;;;;;;;;;;;;;14.20;61.57;95703.19;4224441;28;5659;-67
2022/11/18 05:04:03;;;;;;;;;;;;;;;14.24;61.13;95704.28;4231347;28;5680;-67
2022/11/18 05:06:07;;;;;;;;;;;;;;;14.27;61.14;95701.16;4231330;28;5766;-67
2022/11/18 05:08:10;;;;;;;;;;;;;;;14.33;60.93;95705.50;4231068;28;5679;-67
2022/11/18 05:10:13;;;;;;;;;;;;;;;14.37;60.86;95701.31;4231204;28;5671;-67
2022/11/18 05:14:36;;;;;;;;;;;;;;;14.46;60.66;95713.16;4231512;28;5675;-66
2022/11/18 05:16:39;;;;;;;;;;;;;;;14.46;60.53;95709.72;4232023;27;5683;-67
2022/11/18 05:18:42;;;;;;;;;;;;;;;14.48;60.29;95711.06;4231348;28;5738;-67
2022/11/18 05:20:45;;;;;;;;;;;;;;;14.47;60.08;95713.97;4228686;28;5683;-67
2022/11/18 05:22:49;;;;;;;;;;;;;;;14.48;60.17;95713.72;4224618;28;5698;-67
2022/11/18 05:24:52;;;;;;;;;;;;;;;14.46;60.09;95713.16;4230720;28;5681;-66
2022/11/18 05:26:54;;;;;;;;;;;;;;;14.49;59.87;95727.81;4231443;28;5070;-66
2022/11/18 05:28:57;;;;;;;;;;;;;;;14.51;59.96;95720.44;4230668;28;7727;-66
2022/11/18 05:31:00;;;;;;;;;;;;;;;14.45;59.71;95724.84;4231282;28;5671;-67
2022/11/18 05:33:03;;;;;;;;;;;;;;;14.41;59.65;95725.56;4231057;28;5687;-66
2022/11/18 05:35:07;;;;;;;;;;;;;;;14.40;60.01;95729.28;4234822;27;5762;-67
2022/11/18 05:37:10;;;;;;;;;;;;;;;14.42;59.91;95738.63;4230939;28;5683;-67
2022/11/18 05:39:14;;;;;;;;;;;;;;;14.42;59.68;95743.13;4229567;28;5698;-68
2022/11/18 05:43:36;;;;;;;;;;;;;;;14.40;59.63;95753.22;4228201;28;5734;-68
2022/11/18 05:45:44;;;;;;;;;;;;;;;14.47;59.69;95757.31;4226305;28;5740;-68
2022/11/18 05:48:03;;;;;;;;;;;;;;;14.51;59.37;95755.81;4229116;28;5898;-67
2022/11/18 05:50:07;;;;;;;;;;;;;;;14.46;59.18;95755.72;4221091;28;5687;-68
2022/11/18 05:52:10;;;;;;;;;;;;;;;14.44;59.39;95757.81;4217061;28;5776;-67
2022/11/18 05:54:15;;;;;;;;;;;;;;;14.42;59.27;95765.22;4217717;28;5774;-66
2022/11/18 05:56:22;;;;;;;;;;;;;;;14.38;59.40;95761.41;4217999;28;5826;-67
2022/11/18 05:58:25;;;;;;;;;;;;;;;14.38;59.36;95764.06;4219258;28;5679;-67
2022/11/18 06:00:29;;;;;;;;;;;;;;;14.37;59.30;95767.78;4215260;28;5918;-68
2022/11/18 06:02:31;;;;;;;;;;;;;;;14.41;59.15;95774.22;4217735;28;5805;-68
2022/11/18 06:04:39;;;;;;;;;;;;;;;14.45;59.03;95779.91;4216383;28;5810;-67
2022/11/18 06:06:44;;;;;;;;;;;;;;;14.49;58.72;95786.34;4218428;28;5667;-67
2022/11/18 06:08:54;;;;;;;;;;;;;;;14.49;58.65;95789.78;4218273;28;5757;-67
2022/11/18 06:10:59;;;;;;;;;;;;;;;14.50;58.70;95795.94;4218210;28;5675;-67
2022/11/18 06:13:06;;;;;;;;;;;;;;;14.54;58.52;95794.41;4218016;28;5793;-67
2022/11/18 06:15:13;;;;;;;;;;;;;;;14.56;58.47;95808.25;4216140;28;5806;-67
2022/11/18 06:17:20;;;;;;;;;;;;;;;14.57;58.28;95805.34;4217549;28;5722;-65
2022/11/18 06:19:23;;;;;;;;;;;;;;;14.62;58.29;95809.16;4218163;28;5671;-67
2022/11/18 06:21:26;;;;;;;;;;;;;;;14.63;58.21;95814.25;4210767;28;5826;-66
2022/11/18 06:23:32;;;;;;;;;;;;;;;14.62;57.99;95817.16;4216726;28;5750;-67
2022/11/18 06:25:38;;;;;;;;;;;;;;;14.62;57.78;95822.47;4218128;28;5731;-69
2022/11/18 06:27:42;;;;;;;;;;;;;;;14.63;57.86;95824.06;4216581;28;5671;-66
2022/11/18 06:29:45;;;;;;;;;;;;;;;14.64;57.89;95825.69;4218846;28;5678;-70
2022/11/18 06:31:48;;;;;;;;;;;;;;;14.65;57.41;95827.28;4219419;28;5695;-70
2022/11/18 06:33:51;;;;;;;;;;;;;;;14.61;57.57;95828.81;4219207;28;5679;-69
2022/11/18 06:35:53;;;;;;;;;;;;;;;14.59;57.42;95834.38;4219246;28;5667;-69
2022/11/18 06:37:56;;;;;;;;;;;;;;;14.60;57.29;95833.31;4219198;28;5806;-69
2022/11/18 06:39:59;;;;;;;;;;;;;;;14.62;57.56;95836.56;4218866;28;5746;-69
2022/11/18 06:42:02;;;;;;;;;;;;;;;14.64;57.32;95828.34;4219269;28;5571;-69
2022/11/18 06:44:05;;;;;;;;;;;;;;;14.62;57.07;95828.59;4218114;28;7730;-68
2022/11/18 06:48:31;;;;;;;;;;;;;;;14.60;56.83;95829.84;4217333;28;5687;-68
2022/11/18 06:50:34;;;;;;;;;;;;;;;14.55;56.92;95831.41;4218423;28;5742;-69
2022/11/18 06:52:37;;;;;;;;;;;;;;;14.54;57.09;95842.28;4210224;28;5744;-68
2022/11/18 06:54:39;;;;;;;;;;;;;;;14.51;57.12;95832.94;4218372;28;5668;-69
2022/11/18 06:56:42;;;;;;;;;;;;;;;14.52;56.74;95837.19;4218723;28;5671;-69
2022/11/18 06:58:46;;;;;;;;;;;;;;;14.55;56.84;95841.22;4218416;28;5675;-69
2022/11/18 07:00:50;;;;;;;;;;;;;;;14.57;56.71;95845.25;4215009;28;5631;-69
2022/11/18 07:02:53;;;;;;;;;;;;;;;14.54;56.51;95852.91;4216068;28;5663;-69
2022/11/18 07:04:55;;;;;;;;;;;;;;;14.48;56.45;95846.69;4212820;28;5699;-69
2022/11/18 07:06:58;;;;;;;;;;;;;;;14.48;56.69;95857.31;4218378;28;5787;-69
2022/11/18 07:09:01;;;;;;;;;;;;;;;14.51;56.41;95850.75;4217640;28;5769;-69
2022/11/18 07:11:06;;;;;;;;;;;;;;;14.54;56.35;95872.34;4217399;28;5663;-69
2022/11/18 07:13:08;;;;;;;;;;;;;;;14.54;56.13;95872.34;4208852;28;5654;-69
2022/11/18 07:15:12;;;;;;;;;;;;;;;14.54;56.01;95890.97;4221892;28;5667;-69
2022/11/18 07:17:16;;;;;;;;;;;;;;;14.55;56.13;95884.59;4218364;28;5671;-69
2022/11/18 07:19:19;;;;;;;;;;;;;;;14.54;55.87;95890.97;4215965;28;5663;-69
2022/11/18 07:21:24;;;;;;;;;;;;;;;14.54;55.86;95890.97;4218462;28;5774;-69
2022/11/18 07:23:28;;;;;;;;;;;;;;;14.55;55.87;95883.78;4216749;28;6368;-70
2022/11/18 07:25:31;;;;;;;;;;;;;;;14.59;55.75;95900.88;4217410;28;5671;-70
2022/11/18 07:27:33;;;;;;;;;;;;;;;14.62;55.45;95896.94;4218006;28;5664;-70
2022/11/18 07:29:36;;;;;;;;;;;;;;;14.59;55.40;95897.41;4215834;28;5683;-70
2022/11/18 07:31:39;;;;;;;;;;;;;;;14.55;55.71;95908.53;4214396;28;5779;-69
2022/11/18 07:33:47;;;;;;;;;;;;;;;14.56;55.32;95915.44;4216767;28;5671;-70
2022/11/18 07:35:51;;;;;;;;;;;;;;;14.51;55.43;95910.06;4211281;28;5894;-69
2022/11/18 07:37:54;;;;;;;;;;;;;;;14.54;55.57;95914.91;4217633;28;5663;-69
2022/11/18 07:39:58;;;;;;;;;;;;;;;14.53;55.18;95913.28;4216773;28;5686;-70
2022/11/18 07:42:01;;;;;;;;;;;;;;;14.53;55.20;95913.28;4217079;28;5659;-70
2022/11/18 07:44:07;;;;;;;;;;;;;;;14.56;55.37;95919.97;4214309;28;5762;-70
2022/11/18 07:46:12;;;;;;;;;;;;;;;14.59;55.25;95924.81;4215678;28;5826;-70
2022/11/18 07:48:14;;;;;;;;;;;;;;;14.60;55.06;95934.38;4217483;28;5614;-71
2022/11/18 07:50:19;;;;;;;;;;;;;;;14.56;55.00;95931.41;4217709;28;5683;-71
2022/11/18 07:52:21;;;;;;;;;;;;;;;14.55;55.28;95936.97;4217517;28;6357;-71
2022/11/18 07:54:24;;;;;;;;;;;;;;;14.52;54.98;95940.13;4217333;28;5692;-72
2022/11/18 07:56:27;;;;;;;;;;;;;;;14.52;54.91;95942.78;4216091;28;5730;-72
2022/11/18 07:58:30;;;;;;;;;;;;;;;14.45;55.09;95940.25;4216868;28;5951;-72
2022/11/18 08:00:33;;;;;;;;;;;;;;;14.45;54.90;95945.56;4215582;28;5675;-73
2022/11/18 08:02:36;;;;;;;;;;;;;;;14.48;55.21;95945.09;4209117;28;5849;-72
2022/11/18 08:04:39;;;;;;;;;;;;;;;14.46;55.19;95943.72;4216529;28;5682;-72
2022/11/18 08:06:43;;;;;;;;;;;;;;;14.44;55.12;95951.94;4217630;28;5923;-72
2022/11/18 08:08:47;;;;;;;;;;;;;;;14.44;54.88;95951.94;4216716;28;5667;-72
2022/11/18 08:10:50;;;;;;;;;;;;;;;14.49;54.86;95961.84;4214613;28;5807;-72
2022/11/18 08:12:53;;;;;;;;;;;;;;;14.50;55.00;95958.97;4215850;28;5763;-72
2022/11/18 08:14:56;;;;;;;;;;;;;;;14.52;54.95;95962.19;4203434;28;5913;-72
2022/11/18 08:16:59;;;;;;;;;;;;;;;14.50;55.05;95966.16;4216612;28;5836;-72
2022/11/18 08:19:04;;;;;;;;;;;;;;;14.50;54.88;95971.47;4217226;28;5822;-73
2022/11/18 08:21:08;;;;;;;;;;;;;;;14.53;54.86;95986.94;4216082;28;5682;-73
2022/11/18 08:23:13;;;;;;;;;;;;;;;14.49;55.07;95973.28;4217746;28;5817;-73
2022/11/18 08:25:16;;;;;;;;;;;;;;;14.47;54.88;95980.72;4216504;28;5785;-73
2022/11/18 08:27:19;;;;;;;;;;;;;;;14.49;54.75;95973.28;4212413;28;5670;-73
2022/11/18 08:29:22;;;;;;;;;;;;;;;14.54;54.81;95984.03;4215904;28;5663;-73
2022/11/18 08:31:29;;;;;;;;;;;;;;;14.52;54.81;95980.81;4216859;28;5900;-73
2022/11/18 08:33:32;;;;;;;;;;;;;;;14.54;55.05;95986.69;4217654;28;5818;-73
2022/11/18 08:35:35;;;;;;;;;;;;;;;14.54;54.71;95985.91;4216868;28;6581;-72
2022/11/18 08:37:38;;;;;;;;;;;;;;;14.52;54.90;95991.47;4217295;28;5655;-72
2022/11/18 08:39:43;;;;;;;;;;;;;;;14.49;54.87;95986.59;4217582;28;5680;-71
2022/11/18 08:41:46;;;;;;;;;;;;;;;14.44;54.80;95988.31;4216009;28;5671;-70
2022/11/18 08:43:49;;;;;;;;;;;;;;;14.38;54.60;95990.06;4213020;28;5746;-72
2022/11/18 08:45:52;;;;;;;;;;;;;;;14.37;54.87;95988.44;4209729;28;6348;-72
2022/11/18 08:47:55;;;;;;;;;;;;;;;14.38;54.90;95994.56;4210612;28;5696;-72
2022/11/18 08:50:00;;;;;;;;;;;;;;;14.30;54.53;95990.47;4217271;28;5725;-73
2022/11/18 08:52:03;;;;;;;;;;;;;;;14.23;55.02;95987.91;4217321;28;5687;-71
2022/11/18 08:54:06;;;;;;;;;;;;;;;14.28;54.72;95995.22;4216893;28;5829;-72
2022/11/18 08:56:18;;;;;;;;;;;;;;;14.30;54.80;95992.31;4216204;28;5675;-72
2022/11/18 08:58:21;;;;;;;;;;;;;;;14.32;54.81;95992.88;4217153;28;5671;-72
2022/11/18 09:00:24;;;;;;;;;;;;;;;14.34;54.82;95991.59;4215942;28;5802;-71
2022/11/18 09:02:26;;;;;;;;;;;;;;;14.37;54.59;95996.44;4217209;28;5675;-72
2022/11/18 09:04:30;;;;;;;;;;;;;;;14.35;54.78;96003.84;4216943;28;5749;-72
2022/11/18 09:06:33;;;;;;;;;;;;;;;14.37;54.81;96014.22;4214977;28;6709;-71
2022/11/18 09:08:36;;;;;;;;;;;;;;;14.37;54.59;96015.03;4216698;28;5849;-71
2022/11/18 09:10:39;;;;;;;;;;;;;;;14.39;54.65;96015.63;4215411;28;5742;-71
2022/11/18 09:12:43;;;;;;;;;;;;;;;14.43;54.60;96015.97;4215758;28;6421;-71
2022/11/18 09:14:47;;;;;;;;;;;;;;;14.42;54.85;96017.00;4216894;28;5754;-71
2022/11/18 09:17:10;;;;;;;;;;;;;;;14.43;54.79;96021.28;4206936;28;5663;-72
2022/11/18 09:19:14;;;;;;;;;;;;;;;14.43;54.78;96011.47;4216859;28;6438;-69
2022/11/18 09:21:37;;;;;;;;;;;;;;;14.44;54.62;96020.25;4200182;28;5791;-70
2022/11/18 09:23:42;;;;;;;;;;;;;;;14.42;54.87;96025.78;4217053;28;5671;-71
2022/11/18 09:25:45;;;;;;;;;;;;;;;14.41;54.64;96028.69;4218754;28;5112;-69
2022/11/18 09:27:51;;;;;;;;;;;;;;;14.37;54.87;96017.69;4219703;28;5675;-69
2022/11/18 09:29:54;;;;;;;;;;;;;;;14.35;54.80;96021.66;4220177;28;5667;-70
2022/11/18 09:31:57;;;;;;;;;;;;;;;14.41;54.55;96026.03;4218896;28;5663;-69
2022/11/18 09:34:00;;;;;;;;;;;;;;;14.40;54.76;96025.22;4219832;28;5907;-70
2022/11/18 09:36:04;;;;;;;;;;;;;;;14.42;54.79;96023.13;4219050;28;5680;-71
2022/11/18 09:38:07;;;;;;;;;;;;;;;14.44;54.83;96034.38;4218196;28;5612;-69
2022/11/18 09:40:17;;;;;;;;;;;;;;;14.43;54.83;96022.09;4217989;28;5692;-70
2022/11/18 09:42:35;;;;;;;;;;;;;;;14.47;54.66;96027.78;4215555;28;5914;-70
2022/11/18 09:44:53;;;;;;;;;;;;;;;14.52;54.45;96035.88;4211377;28;5687;-70
2022/11/18 09:47:08;;;;;;;;;;;;;;;14.51;54.72;96034.25;4214701;28;5115;-71
2022/11/18 09:49:27;;;;;;;;;;;;;;;14.41;54.34;96032.16;4215330;28;5878;-70
2022/11/18 09:51:38;;;;;;;;;;;;;;;14.37;54.47;96041.63;4214391;28;6353;-70
2022/11/18 09:53:44;;;;;;;;;;;;;;;14.41;54.74;96044.66;4216918;28;5941;-70
2022/11/18 09:55:48;;;;;;;;;;;;;;;14.45;54.46;96041.31;4217719;28;5671;-70
2022/11/18 09:57:54;;;;;;;;;;;;;;;14.48;54.66;96046.16;4218714;28;5757;-70
2022/11/18 09:59:58;;;;;;;;;;;;;;;14.51;54.31;96042.22;4213805;28;5691;-71
2022/11/18 10:02:14;;;;;;;;;;;;;;;14.48;54.25;96040.00;4208995;28;5704;-71
2022/11/18 10:04:19;;;;;;;;;;;;;;;14.48;54.26;96045.34;4215723;28;5686;-71
2022/11/18 10:06:26;;;;;;;;;;;;;;;14.44;54.28;96045.00;4218291;28;5668;-71
2022/11/18 10:08:32;;;;;;;;;;;;;;;14.48;54.43;96054.13;4225083;28;5674;-70
2022/11/18 10:10:45;;;;;;;;;;;;;;;14.51;54.14;96055.53;4217445;28;5728;-70
2022/11/18 10:12:56;;;;;;;;;;;;;;;14.48;54.33;96055.97;4211767;28;5723;-70
2022/11/18 10:15:17;;;;;;;;;;;;;;;14.46;54.39;96058.88;4216938;28;5683;-71
2022/11/18 10:17:38;;;;;;;;;;;;;;;14.49;54.07;96063.72;4215858;28;5792;-70
2022/11/18 10:19:47;;;;;;;;;;;;;;;14.52;53.96;96051.81;4210682;28;5758;-70
2022/11/18 10:22:02;;;;;;;;;;;;;;;14.58;54.22;96056.19;4218752;28;5666;-70
2022/11/18 10:24:13;;;;;;;;;;;;;;;14.60;53.74;96047.97;4218289;28;5667;-70
2022/11/18 10:26:30;;;;;;;;;;;;;;;14.66;53.97;96052.34;4217485;28;6440;-70
2022/11/18 10:28:32;;;;;;;;;;;;;;;14.71;53.89;96052.44;4214987;28;5759;-70
2022/11/18 10:30:37;;;;;;;;;;;;;;;14.76;53.54;96045.38;4214706;28;5675;-70
2022/11/18 10:32:54;;;;;;;;;;;;;;;14.85;53.47;96048.47;4213536;28;5683;-70
2022/11/18 10:34:59;;;;;;;;;;;;;;;14.88;53.65;96048.00;4217189;28;5676;-70
2022/11/18 10:37:04;;;;;;;;;;;;;;;14.91;53.37;96058.16;4217635;28;5900;-70
2022/11/18 10:39:14;;;;;;;;;;;;;;;14.88;53.39;96052.50;4217055;28;5747;-70
2022/11/18 10:41:20;;;;;;;;;;;;;;;14.85;53.23;96049.28;4217451;28;5659;-70
2022/11/18 10:43:46;;;;;;;;;;;;;;;14.85;53.36;96048.47;4215555;28;5683;-71
2022/11/18 10:45:50;;;;;;;;;;;;;;;14.85;53.06;96049.28;4211167;28;5813;-70
2022/11/18 10:48:01;;;;;;;;;;;;;;;14.85;53.06;96046.63;4217971;28;5807;-70
2022/11/18 10:50:28;;;;;;;;;;;;;;;14.83;53.10;96039.88;4218845;28;5830;-70
2022/11/18 10:52:31;;;;;;;;;;;;;;;14.82;52.85;96044.41;4217248;28;5802;-70
2022/11/18 10:54:34;;;;;;;;;;;;;;;14.81;52.82;96045.47;4213470;28;5667;-70
2022/11/18 10:56:46;;;;;;;;;;;;;;;14.83;52.88;96042.56;4217645;28;5679;-70
2022/11/18 10:58:50;;;;;;;;;;;;;;;14.87;52.82;96037.59;4216165;28;5787;-71
2022/11/18 11:01:05;;;;;;;;;;;;;;;14.90;52.80;96029.91;4218378;28;6376;-70
2022/11/18 11:03:28;;;;;;;;;;;;;;;14.94;52.61;96039.03;4218383;28;5706;-71
2022/11/18 11:05:31;;;;;;;;;;;;;;;14.96;52.49;96036.97;4216967;28;5783;-71
2022/11/18 11:07:36;;;;;;;;;;;;;;;14.95;52.50;96035.34;4218080;28;5074;-70
2022/11/18 11:09:39;;;;;;;;;;;;;;;14.91;52.20;96030.72;4216446;28;7683;-70
2022/11/18 11:11:56;;;;;;;;;;;;;;;14.85;52.48;96027.19;4218134;28;5648;-70
2022/11/18 11:14:19;;;;;;;;;;;;;;;14.81;52.36;96031.34;4216715;28;6407;-70
2022/11/18 11:16:27;;;;;;;;;;;;;;;14.80;52.28;96043.03;4218423;28;5667;-70
2022/11/18 11:18:42;;;;;;;;;;;;;;;14.83;52.24;96037.22;4218184;28;5819;-71
2022/11/18 11:20:45;;;;;;;;;;;;;;;14.85;52.39;96035.97;4218059;28;5678;-71
2022/11/18 11:22:48;;;;;;;;;;;;;;;14.86;52.21;96031.47;4218179;28;5811;-71
2022/11/18 11:24:51;;;;;;;;;;;;;;;14.87;52.35;96037.59;4215633;28;5814;-71
2022/11/18 11:27:05;;;;;;;;;;;;;;;14.89;52.20;96038.16;4217190;28;5659;-71
2022/11/18 11:29:46;;;;;;;;;;;;;;;14.89;52.28;96038.97;4209808;28;5841;-71
2022/11/18 11:32:01;;;;;;;;;;;;;;;14.91;52.07;96036.84;4212240;28;6137;-71
2022/11/18 11:34:11;;;;;;;;;;;;;;;14.93;52.15;96033.94;4205258;28;5801;-71
2022/11/18 11:36:32;;;;;;;;;;;;;;;14.96;52.30;96030.84;4212867;28;5831;-71
2022/11/18 11:38:48;;;;;;;;;;;;;;;14.95;52.23;96038.00;4216977;28;5659;-71
2022/11/18 11:41:02;;;;;;;;;;;;;;;14.94;52.25;96027.59;4210639;28;5660;-71
2022/11/18 11:43:22;;;;;;;;;;;;;;;14.92;51.94;96029.69;4217896;28;5679;-71
2022/11/18 11:45:31;;;;;;;;;;;;;;;14.96;51.95;96036.16;4216323;28;5671;-71
2022/11/18 11:47:48;;;;;;;;;;;;;;;14.96;52.02;96036.97;4216823;28;5667;-71
2022/11/18 11:49:54;;;;;;;;;;;;;;;15.00;52.01;96029.31;4205310;28;5805;-71
2022/11/18 11:52:02;;;;;;;;;;;;;;;15.01;51.87;96034.38;4212463;28;5866;-71
2022/11/18 11:54:31;;;;;;;;;;;;;;;15.02;51.97;96043.97;4215314;28;5773;-71
2022/11/18 11:56:38;;;;;;;;;;;;;;;15.04;51.94;96038.41;4216416;28;5766;-71
2022/11/18 11:59:23;;;;;;;;;;;;;;;15.03;51.83;96034.94;4209473;28;5806;-71
2022/11/18 12:01:29;;;;;;;;;;;;;;;15.00;51.66;96040.75;4216702;28;5898;-71
2022/11/18 12:03:45;;;;;;;;;;;;;;;14.98;51.60;96034.88;4217011;28;5926;-71
2022/11/18 12:05:54;;;;;;;;;;;;;;;14.99;51.58;96039.13;4205011;28;5697;-71
2022/11/18 12:07:59;;;;;;;;;;;;;;;15.00;51.60;96037.28;4214076;28;5878;-71
2022/11/18 12:10:19;;;;;;;;;;;;;;;14.97;51.33;96043.09;4211151;28;6372;-71
2022/11/18 12:12:34;;;;;;;;;;;;;;;14.96;51.37;96036.97;4215219;28;5687;-71
2022/11/18 12:14:45;;;;;;;;;;;;;;;14.95;51.36;96035.34;4215927;28;5659;-71
2022/11/18 12:16:56;;;;;;;;;;;;;;;14.93;51.25;96029.44;4217206;28;5656;-66
2022/11/18 12:19:07;;;;;;;;;;;;;;;14.99;51.39;96030.34;4217193;28;5771;-66
2022/11/18 12:21:52;;;;;;;;;;;;;;;15.04;51.22;96025.09;4217288;28;5774;-66
2022/11/18 12:24:29;;;;;;;;;;;;;;;15.03;51.04;96036.81;4209061;28;5784;-66
2022/11/18 12:26:35;;;;;;;;;;;;;;;14.95;50.76;96038.00;4215607;28;5789;-66
2022/11/18 12:28:40;;;;;;;;;;;;;;;14.93;50.76;96039.28;4216789;28;5671;-67
2022/11/18 12:30:43;;;;;;;;;;;;;;;14.94;50.78;96038.22;4216906;28;5759;-66
2022/11/18 12:32:46;;;;;;;;;;;;;;;14.94;50.79;96041.69;4216439;28;6030;-67
2022/11/18 12:34:57;;;;;;;;;;;;;;;14.94;50.66;96039.03;4214207;28;5700;-66
2022/11/18 12:37:53;;;;;;;;;;;;;;;14.96;50.57;96036.97;4214887;28;5675;-67
2022/11/18 12:40:00;;;;;;;;;;;;;;;14.95;50.55;96045.16;4140266;28;6198;-67
2022/11/18 12:44:25;;;;;;;;;;;;;;;14.98;50.66;96048.19;4149168;28;5780;-67
2022/11/18 12:46:50;;;;;;;;;;;;;;;14.99;50.42;96049.78;4144527;28;5840;-65
2022/11/18 12:48:53;;;;;;;;;;;;;;;15.00;50.33;96050.59;4135228;28;6023;-68
2022/11/18 12:50:59;;;;;;;;;;;;;;;15.03;50.40;96050.09;4148870;28;5908;-67
2022/11/18 12:53:02;;;;;;;;;;;;;;;15.00;50.38;96048.75;4148928;28;5776;-67
2022/11/18 12:55:15;;;;;;;;;;;;;;;15.01;50.18;96039.72;4148715;28;5785;-67
2022/11/18 12:57:20;;;;;;;;;;;;;;;15.03;50.14;96050.91;4148463;28;5782;-67
2022/11/18 12:59:31;;;;;;;;;;;;;;;15.04;49.99;96049.06;4145501;28;5806;-66
2022/11/18 13:01:34;;;;;;;;;;;;;;;15.07;50.01;96043.28;4148957;28;5952;-67
2022/11/18 13:03:37;;;;;;;;;;;;;;;15.07;49.81;96043.28;4139312;28;5812;-67
2022/11/18 13:05:40;;;;;;;;;;;;;;;15.06;49.72;96041.63;4151104;28;6040;-67
2022/11/18 13:10:27;;;;;;;;;;;;;;;15.05;49.77;96038.16;4116343;28;5922;-67
2022/11/18 13:12:31;;;;;;;;;;;;;;;15.04;49.61;96039.22;4116282;28;5800;-67
2022/11/18 13:19:22;;;;;;;;;;;;;;;15.00;49.87;96038.09;4157560;28;5900;-68
2022/11/18 13:23:51;;;;;;;;;;;;;;;14.97;49.72;96038.56;4166214;28;5967;-67
2022/11/18 13:26:05;;;;;;;;;;;;;;;14.98;49.57;96031.41;4166029;28;6296;-67
2022/11/18 13:28:18;;;;;;;;;;;;;;;14.98;49.63;96026.88;4167600;28;5692;-67
2022/11/18 13:30:21;;;;;;;;;;;;;;;14.99;49.41;96025.03;4166234;28;5582;-68
2022/11/18 13:32:26;;;;;;;;;;;;;;;14.98;49.57;96026.88;4167823;28;8441;-67
2022/11/18 13:34:31;;;;;;;;;;;;;;;15.01;49.41;96017.59;4167989;28;5788;-67
2022/11/18 13:36:34;;;;;;;;;;;;;;;15.00;49.46;96024.78;4165453;28;5838;-67
2022/11/18 13:38:37;;;;;;;;;;;;;;;15.01;49.29;96034.38;4166549;28;5688;-68
2022/11/18 13:41:03;;;;;;;;;;;;;;;15.01;49.24;96029.06;4167288;28;5800;-67
2022/11/18 13:43:10;;;;;;;;;;;;;;;14.98;49.15;96028.75;4219077;28;5818;-68
2022/11/18 13:45:14;;;;;;;;;;;;;;;14.95;49.06;96029.19;4218732;28;5746;-67
2022/11/18 13:47:24;;;;;;;;;;;;;;;14.97;49.32;96029.78;4216890;28;5675;-68
2022/11/18 13:49:37;;;;;;;;;;;;;;;14.98;49.02;96018.91;4217864;28;5682;-67
2022/11/18 13:51:40;;;;;;;;;;;;;;;15.00;49.07;96016.78;4219498;28;5675;-68
2022/11/18 13:53:43;;;;;;;;;;;;;;;15.01;48.97;96013.09;4214605;28;5671;-68
2022/11/18 13:55:51;;;;;;;;;;;;;;;15.01;48.99;96006.97;4215911;28;6482;-68
2022/11/18 13:58:00;;;;;;;;;;;;;;;15.04;48.96;96001.16;4207717;28;5795;-68
2022/11/18 14:00:07;;;;;;;;;;;;;;;15.07;48.77;96006.00;4217859;28;5683;-68
2022/11/18 14:02:13;;;;;;;;;;;;;;;15.07;48.47;96009.47;4216194;28;5663;-68
2022/11/18 14:04:20;;;;;;;;;;;;;;;15.07;48.43;96006.81;4218136;28;5742;-68
2022/11/18 14:06:32;;;;;;;;;;;;;;;15.10;48.57;96011.66;4218067;28;5750;-68
2022/11/18 14:08:36;;;;;;;;;;;;;;;15.12;48.56;96014.88;4217856;28;5842;-67
2022/11/18 14:10:42;;;;;;;;;;;;;;;15.14;48.36;96012.78;4221508;28;5737;-67
2022/11/18 14:12:58;;;;;;;;;;;;;;;15.14;48.48;96012.78;4214549;28;5742;-67
2022/11/18 14:15:19;;;;;;;;;;;;;;;15.16;48.18;96007.22;4218297;28;5695;-68
2022/11/18 14:17:23;;;;;;;;;;;;;;;15.22;48.42;96003.59;4217750;28;5874;-68
2022/11/18 14:19:30;;;;;;;;;;;;;;;15.22;48.25;96002.78;4218613;28;5778;-69
2022/11/18 14:21:35;;;;;;;;;;;;;;;15.25;48.35;96007.63;4217723;28;5823;-68
2022/11/18 14:23:42;;;;;;;;;;;;;;;15.26;48.44;96003.91;4214747;28;5778;-68
2022/11/18 14:25:45;;;;;;;;;;;;;;;15.27;48.20;96010.84;4216172;28;5667;-68
2022/11/18 14:27:50;;;;;;;;;;;;;;;15.26;48.14;96004.72;4215218;28;5935;-68
2022/11/18 14:29:53;;;;;;;;;;;;;;;15.27;48.07;96005.53;4214255;28;5684;-68
2022/11/18 14:32:13;;;;;;;;;;;;;;;15.28;48.12;96005.28;4212407;28;5766;-68
2022/11/18 14:34:20;;;;;;;;;;;;;;;15.29;48.06;96004.25;4210743;28;5669;-68
2022/11/18 14:36:23;;;;;;;;;;;;;;;15.29;48.31;95996.28;4207751;28;5671;-68
2022/11/18 14:38:37;;;;;;;;;;;;;;;15.30;48.12;95999.75;4212910;28;5818;-68
2022/11/18 14:41:02;;;;;;;;;;;;;;;15.29;48.10;95993.59;4217839;28;5674;-68
2022/11/18 14:43:06;;;;;;;;;;;;;;;15.28;47.90;95991.16;4218440;28;6622;-68
2022/11/18 14:45:11;;;;;;;;;;;;;;;15.24;47.90;96001.50;4216640;28;5703;-68
2022/11/18 14:47:21;;;;;;;;;;;;;;;15.23;47.85;95997.22;4215047;28;5733;-69
2022/11/18 14:49:26;;;;;;;;;;;;;;;15.22;48.05;95992.94;4212799;28;5659;-69
2022/11/18 14:51:29;;;;;;;;;;;;;;;15.20;48.06;95989.72;4214329;28;5101;-69
2022/11/18 14:53:32;;;;;;;;;;;;;;;15.19;47.63;95992.63;4211736;28;5675;-69
2022/11/18 14:55:38;;;;;;;;;;;;;;;15.15;47.56;95998.41;4204738;28;6860;-69
2022/11/18 14:57:41;;;;;;;;;;;;;;;15.12;47.64;95993.59;4214915;28;5913;-68
2022/11/18 14:59:45;;;;;;;;;;;;;;;15.14;47.71;95996.81;4212598;27;6997;-68
2022/11/18 15:01:49;;;;;;;;;;;;;;;15.13;47.63;95997.84;4213702;28;5697;-68
2022/11/18 15:03:52;;;;;;;;;;;;;;;15.12;47.50;95996.25;4215250;28;5252;-67
2022/11/18 15:05:55;;;;;;;;;;;;;;;15.13;47.51;95989.88;4210093;28;5774;-67
2022/11/18 15:07:57;;;;;;;;;;;;;;;15.13;47.63;95992.53;4214089;28;5779;-68
2022/11/18 15:10:00;;;;;;;;;;;;;;;15.14;47.46;95993.34;4216451;28;5667;-67
2022/11/18 15:12:03;;;;;;;;;;;;;;;15.12;47.31;95995.44;4220696;28;5651;-67
2022/11/18 15:14:06;;;;;;;;;;;;;;;15.14;47.31;96002.13;4213378;28;5664;-66
2022/11/18 15:16:18;;;;;;;;;;;;;;;15.12;47.39;96001.56;4212869;28;5663;-67
2022/11/18 15:18:25;;;;;;;;;;;;;;;15.15;47.40;96009.06;4215045;28;5802;-67
2022/11/18 15:20:28;;;;;;;;;;;;;;;15.15;47.15;96006.41;4211011;28;5754;-66
2022/11/18 15:22:31;;;;;;;;;;;;;;;15.17;47.26;96000.03;4212292;28;5683;-68
2022/11/18 15:24:34;;;;;;;;;;;;;;;15.18;47.39;96002.47;4213615;28;5762;-67
2022/11/18 15:26:40;;;;;;;;;;;;;;;15.19;47.52;95997.97;4216133;28;5783;-67
2022/11/18 15:28:42;;;;;;;;;;;;;;;15.21;47.17;96001.19;4209989;28;5660;-67
2022/11/18 15:30:45;;;;;;;;;;;;;;;15.21;47.10;95998.53;4212963;28;5817;-67
2022/11/18 15:32:49;;;;;;;;;;;;;;;15.21;47.08;96001.19;4213155;28;5841;-67
2022/11/18 15:34:52;;;;;;;;;;;;;;;15.21;46.96;96001.19;4212839;28;5667;-67
2022/11/18 15:36:55;;;;;;;;;;;;;;;15.20;46.96;96008.34;4212647;28;5734;-67
2022/11/18 15:38:58;;;;;;;;;;;;;;;15.22;46.91;95997.47;4207681;28;5858;-67
2022/11/18 15:41:01;;;;;;;;;;;;;;;15.22;47.27;95992.94;4214193;28;5739;-67
2022/11/18 15:43:03;;;;;;;;;;;;;;;15.21;47.09;95996.66;4212899;28;5663;-68
2022/11/18 15:45:07;;;;;;;;;;;;;;;15.23;47.24;95999.06;4210981;28;5676;-67
2022/11/18 15:47:10;;;;;;;;;;;;;;;15.21;47.04;95995.84;4211624;28;5742;-68
2022/11/18 15:49:16;;;;;;;;;;;;;;;15.22;46.89;96002.78;4211647;28;5761;-67
2022/11/18 15:51:19;;;;;;;;;;;;;;;15.23;46.83;95996.41;4215302;28;5671;-67
2022/11/18 15:53:22;;;;;;;;;;;;;;;15.22;46.87;96002.78;4217369;28;5672;-67
2022/11/18 15:55:25;;;;;;;;;;;;;;;15.20;46.79;96002.22;4210703;28;5663;-68
2022/11/18 15:57:28;;;;;;;;;;;;;;;15.20;47.13;96010.22;4210499;28;5762;-68
2022/11/18 15:59:30;;;;;;;;;;;;;;;15.15;46.82;96014.38;4210119;28;5866;-67
2022/11/18 16:01:35;;;;;;;;;;;;;;;15.03;46.88;96012.84;4208572;28;5762;-65
2022/11/18 16:03:38;;;;;;;;;;;;;;;14.98;47.01;96010.91;4209836;28;5699;-65
2022/11/18 16:05:42;;;;;;;;;;;;;;;14.95;46.92;96014.06;4216138;28;5670;-65
2022/11/18 16:07:46;;;;;;;;;;;;;;;14.89;47.00;96028.31;4206570;28;5862;-65
2022/11/18 16:14:38;;;;;;;;;;;;;;;14.73;47.37;96045.84;4208117;28;5691;-66
2022/11/18 16:16:41;;;;;;;;;;;;;;;14.73;47.56;96056.50;4212903;28;5121;-65
2022/11/18 16:18:44;;;;;;;;;;;;;;;14.72;47.22;96057.53;4208612;28;5778;-65
2022/11/18 16:20:48;;;;;;;;;;;;;;;14.70;47.67;96072.09;4206516;28;5683;-65
2022/11/18 16:22:52;;;;;;;;;;;;;;;14.65;47.63;96070.16;4213132;28;5675;-66